createdAt,value
2019-02-24T00:00:21.577Z,8.50
2019-02-24T00:02:52.078Z,8.50
2019-02-24T00:05:22.494Z,8.50
2019-02-24T00:07:52.816Z,8.40
2019-02-24T00:10:23.436Z,8.40
2019-02-24T00:12:54.888Z,8.50
2019-02-24T00:15:26.235Z,8.40
2019-02-24T00:17:57.584Z,8.20
2019-02-24T00:20:28.859Z,8.20
2019-02-24T00:22:59.474Z,8.20
2019-02-24T00:25:29.858Z,8.20
2019-02-24T00:28:07.008Z,8.10
2019-02-24T00:30:30.620Z,8.10
2019-02-24T00:33:01.106Z,8.00
2019-02-24T00:35:31.431Z,8.10
2019-02-24T00:38:01.757Z,8.10
2019-02-24T00:40:32.215Z,8.00
2019-02-24T00:43:02.634Z,8.00
2019-02-24T00:45:34.243Z,8.00
2019-02-24T00:48:05.383Z,8.00
2019-02-24T00:50:36.836Z,7.90
2019-02-24T00:53:08.016Z,8.00
2019-02-24T00:55:58.888Z,7.90
2019-02-24T00:58:30.041Z,8.00
2019-02-24T01:01:01.386Z,7.90
2019-02-24T01:03:32.574Z,7.80
2019-02-24T01:06:06.014Z,7.80
2019-02-24T01:08:37.478Z,7.90
2019-02-24T01:11:07.849Z,7.90
2019-02-24T01:13:45.455Z,7.80
2019-02-24T01:16:15.829Z,7.70
2019-02-24T01:18:46.262Z,7.80
2019-02-24T01:21:16.885Z,7.60
2019-02-24T01:23:47.269Z,7.60
2019-02-24T01:26:17.939Z,7.50
2019-02-24T01:28:49.387Z,7.60
2019-02-24T01:31:20.737Z,7.60
2019-02-24T01:33:51.833Z,7.50
2019-02-24T01:36:22.268Z,7.50
2019-02-24T01:38:52.696Z,7.50
2019-02-24T01:41:23.140Z,7.50
2019-02-24T01:43:53.793Z,7.50
2019-02-24T01:46:25.982Z,7.50
2019-02-24T01:48:56.409Z,7.50
2019-02-24T01:51:26.801Z,7.50
2019-02-24T01:53:57.458Z,7.50
2019-02-24T01:56:28.648Z,7.20
2019-02-24T01:59:18.691Z,7.20
2019-02-24T02:01:49.873Z,7.30
2019-02-24T02:04:26.386Z,7.20
2019-02-24T02:06:57.956Z,7.30
2019-02-24T02:09:28.395Z,7.30
2019-02-24T02:11:58.960Z,7.20
2019-02-24T02:14:49.794Z,7.20
2019-02-24T02:17:20.455Z,7.10
2019-02-24T02:19:51.660Z,7.20
2019-02-24T02:22:22.045Z,7.20
2019-02-24T02:24:52.429Z,7.10
2019-02-24T02:27:23.707Z,6.90
2019-02-24T02:29:54.079Z,7.00
2019-02-24T02:32:25.490Z,7.00
2019-02-24T02:34:57.130Z,6.80
2019-02-24T02:37:28.272Z,7.00
2019-02-24T02:39:59.624Z,7.00
2019-02-24T02:42:30.818Z,7.00
2019-02-24T02:45:20.863Z,7.00
2019-02-24T02:47:52.206Z,7.00
2019-02-24T02:50:23.420Z,7.00
2019-02-24T02:52:54.821Z,7.00
2019-02-24T02:55:25.267Z,7.00
2019-02-24T02:57:55.665Z,7.00
2019-02-24T03:03:13.622Z,7.00
2019-02-24T03:05:44.350Z,7.10
2019-02-24T03:08:15.508Z,6.80
2019-02-24T03:10:46.095Z,6.80
2019-02-24T03:13:16.759Z,6.80
2019-02-24T03:15:47.903Z,6.80
2019-02-24T03:18:19.151Z,6.80
2019-02-24T03:20:50.601Z,6.80
2019-02-24T03:23:21.944Z,6.80
2019-02-24T03:25:52.380Z,6.70
2019-02-24T03:28:23.564Z,6.60
2019-02-24T03:31:00.146Z,6.60
2019-02-24T03:33:31.553Z,6.70
2019-02-24T03:36:01.989Z,6.70
2019-02-24T03:38:32.383Z,6.70
2019-02-24T03:41:03.026Z,6.70
2019-02-24T03:43:34.182Z,6.50
2019-02-24T03:46:04.908Z,6.50
2019-02-24T03:48:36.262Z,6.60
2019-02-24T03:51:07.708Z,6.50
2019-02-24T03:53:38.863Z,6.50
2019-02-24T03:56:09.289Z,6.50
2019-02-24T03:58:40.375Z,6.50
2019-02-24T04:01:32.985Z,6.60
2019-02-24T04:04:03.614Z,6.50
2019-02-24T04:06:35.056Z,6.50
2019-02-24T04:09:05.624Z,6.50
2019-02-24T04:11:43.373Z,6.40
2019-02-24T04:14:14.510Z,6.30
2019-02-24T04:16:52.427Z,6.30
2019-02-24T04:19:23.574Z,6.20
2019-02-24T04:21:55.033Z,6.20
2019-02-24T04:24:26.377Z,6.20
2019-02-24T04:26:56.998Z,6.20
2019-02-24T04:29:28.087Z,6.10
2019-02-24T04:32:00.940Z,6.10
2019-02-24T04:34:31.505Z,6.20
2019-02-24T04:37:02.105Z,6.20
2019-02-24T04:39:33.301Z,6.20
2019-02-24T04:42:03.981Z,6.20
2019-02-24T04:44:35.068Z,6.20
2019-02-24T04:47:05.760Z,6.20
2019-02-24T04:49:36.987Z,6.10
2019-02-24T04:52:08.164Z,6.20
2019-02-24T04:54:39.594Z,6.10
2019-02-24T04:57:10.740Z,6.10
2019-02-24T04:59:41.886Z,6.00
2019-02-24T05:02:13.095Z,5.90
2019-02-24T05:04:43.479Z,5.90
2019-02-24T05:07:13.861Z,6.00
2019-02-24T05:09:44.247Z,6.00
2019-02-24T05:12:16.795Z,6.00
2019-02-24T05:14:47.947Z,5.90
2019-02-24T05:17:18.665Z,5.90
2019-02-24T05:19:49.752Z,5.90
2019-02-24T05:22:39.581Z,5.80
2019-02-24T05:25:10.728Z,5.80
2019-02-24T05:27:41.873Z,5.70
2019-02-24T05:30:14.567Z,5.70
2019-02-24T05:32:45.767Z,5.80
2019-02-24T05:35:37.557Z,5.80
2019-02-24T05:38:08.364Z,5.90
2019-02-24T05:40:39.725Z,6.00
2019-02-24T05:43:11.068Z,5.90
2019-02-24T05:45:41.456Z,5.90
2019-02-24T05:48:12.129Z,5.90
2019-02-24T05:50:43.283Z,6.00
2019-02-24T05:53:14.212Z,5.90
2019-02-24T05:55:45.567Z,5.90
2019-02-24T05:58:17.040Z,5.90
2019-02-24T06:00:48.155Z,5.90
2019-02-24T06:03:19.308Z,5.90
2019-02-24T06:05:49.693Z,5.90
2019-02-24T06:08:20.094Z,5.90
2019-02-24T06:10:57.578Z,5.90
2019-02-24T06:13:28.280Z,5.80
2019-02-24T06:15:59.429Z,5.80
2019-02-24T06:18:30.521Z,5.70
2019-02-24T06:21:00.958Z,5.70
2019-02-24T06:23:31.346Z,5.60
2019-02-24T06:26:01.660Z,5.60
2019-02-24T06:28:32.157Z,5.50
2019-02-24T06:31:02.826Z,5.40
2019-02-24T06:33:34.160Z,5.30
2019-02-24T06:36:05.616Z,5.30
2019-02-24T06:38:36.954Z,5.40
2019-02-24T06:41:08.104Z,5.50
2019-02-24T06:43:39.299Z,5.40
2019-02-24T06:46:31.386Z,5.30
2019-02-24T06:49:02.666Z,5.30
2019-02-24T06:51:33.051Z,5.30
2019-02-24T06:54:04.367Z,5.30
2019-02-24T06:56:34.761Z,5.30
2019-02-24T06:59:05.150Z,5.30
2019-02-24T07:01:36.507Z,5.50
2019-02-24T07:04:07.961Z,5.30
2019-02-24T07:06:39.110Z,5.20
2019-02-24T07:09:10.558Z,5.30
2019-02-24T07:14:23.480Z,5.30
2019-02-24T07:16:54.885Z,5.40
2019-02-24T07:19:32.558Z,5.50
2019-02-24T07:22:02.928Z,5.40
2019-02-24T07:24:38.486Z,5.50
2019-02-24T07:27:08.854Z,5.60
2019-02-24T07:29:40.293Z,5.60
2019-02-24T07:32:11.645Z,5.60
2019-02-24T07:34:42.049Z,5.60
2019-02-24T07:37:13.238Z,5.70
2019-02-24T07:39:43.945Z,5.70
2019-02-24T07:42:15.031Z,5.80
2019-02-24T07:44:51.635Z,5.80
2019-02-24T07:47:22.193Z,5.80
2019-02-24T07:49:53.345Z,6.00
2019-02-24T07:52:24.495Z,5.90
2019-02-24T07:54:54.892Z,5.90
2019-02-24T07:57:25.206Z,6.00
2019-02-24T07:59:55.688Z,5.90
2019-02-24T08:02:26.113Z,6.00
2019-02-24T08:04:56.520Z,6.00
2019-02-24T08:07:27.751Z,6.00
2019-02-24T08:09:59.425Z,6.00
2019-02-24T08:12:30.565Z,5.90
2019-02-24T08:15:01.716Z,5.90
2019-02-24T08:17:32.336Z,5.90
2019-02-24T08:20:04.513Z,5.90
2019-02-24T08:22:35.665Z,5.80
2019-02-24T08:25:06.119Z,5.80
2019-02-24T08:27:39.889Z,6.00
2019-02-24T08:30:11.264Z,5.90
2019-02-24T08:32:41.662Z,5.90
2019-02-24T08:35:12.022Z,6.00
2019-02-24T08:37:42.605Z,6.00
2019-02-24T08:40:12.907Z,6.00
2019-02-24T08:42:43.884Z,6.20
2019-02-24T08:45:14.968Z,6.20
2019-02-24T08:47:48.425Z,6.20
2019-02-24T08:50:19.981Z,6.30
2019-02-24T08:52:50.622Z,6.30
2019-02-24T08:55:21.773Z,6.40
2019-02-24T08:57:52.864Z,6.50
2019-02-24T09:00:23.543Z,6.50
2019-02-24T09:02:54.704Z,6.50
2019-02-24T09:05:25.089Z,6.50
2019-02-24T09:07:55.522Z,6.60
2019-02-24T09:10:26.671Z,7.30
2019-02-24T09:12:57.803Z,7.70
2019-02-24T09:15:28.320Z,7.70
2019-02-24T09:17:58.879Z,7.30
2019-02-24T09:20:29.976Z,7.00
2019-02-24T09:23:03.488Z,7.00
2019-02-24T09:25:34.460Z,7.00
2019-02-24T09:28:05.813Z,7.70
2019-02-24T09:30:37.368Z,7.80
2019-02-24T09:33:08.521Z,8.10
2019-02-24T09:35:38.840Z,8.10
2019-02-24T09:38:10.284Z,8.10
2019-02-24T09:40:41.445Z,8.00
2019-02-24T09:43:11.760Z,8.00
2019-02-24T09:45:42.961Z,7.60
2019-02-24T09:48:13.381Z,7.50
2019-02-24T09:51:05.176Z,7.90
2019-02-24T09:53:36.306Z,7.60
2019-02-24T09:56:07.660Z,7.50
2019-02-24T09:58:38.906Z,7.60
2019-02-24T10:01:28.889Z,7.60
2019-02-24T10:04:00.077Z,7.70
2019-02-24T10:06:36.810Z,7.70
2019-02-24T10:09:08.011Z,7.80
2019-02-24T10:11:38.691Z,7.80
2019-02-24T10:14:09.891Z,7.80
2019-02-24T10:16:41.587Z,7.80
2019-02-24T10:19:12.946Z,7.90
2019-02-24T10:21:44.167Z,7.90
2019-02-24T10:24:14.608Z,7.90
2019-02-24T10:26:45.764Z,8.00
2019-02-24T10:29:17.158Z,8.10
2019-02-24T10:31:50.930Z,8.00
2019-02-24T10:34:21.382Z,8.10
2019-02-24T10:36:51.753Z,8.10
2019-02-24T10:39:29.516Z,8.20
2019-02-24T10:41:56.403Z,8.20
2019-02-24T10:44:27.490Z,8.20
2019-02-24T10:47:26.648Z,8.20
2019-02-24T10:49:57.798Z,8.40
2019-02-24T10:52:28.139Z,8.40
2019-02-24T10:54:58.650Z,8.40
2019-02-24T10:57:29.790Z,8.40
2019-02-24T11:00:00.941Z,8.40
2019-02-24T11:02:32.337Z,8.40
2019-02-24T11:05:22.277Z,8.40
2019-02-24T11:10:43.801Z,8.50
2019-02-24T11:13:14.365Z,8.60
2019-02-24T11:15:44.834Z,8.50
2019-02-24T11:18:15.151Z,8.70
2019-02-24T11:20:45.535Z,8.70
2019-02-24T11:23:16.727Z,8.80
2019-02-24T11:25:47.044Z,8.80
2019-02-24T11:28:21.577Z,8.90
2019-02-24T11:30:52.143Z,9.00
2019-02-24T11:33:23.495Z,9.00
2019-02-24T11:35:54.953Z,9.00
2019-02-24T11:38:26.409Z,9.00
2019-02-24T11:40:57.540Z,9.00
2019-02-24T11:43:28.874Z,9.10
2019-02-24T11:45:59.463Z,9.10
2019-02-24T11:48:33.983Z,9.20
2019-02-24T11:51:04.680Z,9.20
2019-02-24T11:53:36.038Z,9.30
2019-02-24T11:56:06.524Z,9.20
2019-02-24T11:58:36.960Z,9.40
2019-02-24T12:01:07.408Z,9.40
2019-02-24T12:03:38.560Z,9.50
2019-02-24T12:06:09.784Z,9.60
2019-02-24T12:08:40.159Z,9.50
2019-02-24T12:11:10.548Z,9.50
2019-02-24T12:13:42.011Z,9.90
2019-02-24T12:16:13.150Z,9.90
2019-02-24T12:18:43.482Z,9.90
2019-02-24T12:21:14.628Z,9.90
2019-02-24T12:23:45.814Z,9.90
2019-02-24T12:26:20.280Z,9.90
2019-02-24T12:28:50.730Z,9.90
2019-02-24T12:31:21.360Z,10.00
2019-02-24T12:33:52.511Z,10.00
2019-02-24T12:36:22.881Z,9.90
2019-02-24T12:38:53.211Z,10.20
2019-02-24T12:41:23.776Z,10.20
2019-02-24T12:43:55.342Z,10.30
2019-02-24T12:46:26.167Z,10.20
2019-02-24T12:48:57.317Z,10.30
2019-02-24T12:51:28.787Z,10.20
2019-02-24T12:53:59.182Z,10.20
2019-02-24T12:56:30.272Z,10.40
2019-02-24T12:59:02.720Z,10.30
2019-02-24T13:01:33.749Z,10.50
2019-02-24T13:04:04.896Z,10.40
2019-02-24T13:06:36.054Z,10.50
2019-02-24T13:09:07.795Z,10.50
2019-02-24T13:11:38.957Z,10.70
2019-02-24T13:14:09.338Z,10.70
2019-02-24T13:16:39.770Z,10.80
2019-02-24T13:19:10.349Z,11.00
2019-02-24T13:21:40.955Z,11.10
2019-02-24T13:24:12.338Z,11.10
2019-02-24T13:26:42.917Z,11.10
2019-02-24T13:29:14.267Z,11.00
2019-02-24T13:31:44.877Z,11.10
2019-02-24T13:34:15.439Z,11.30
2019-02-24T13:36:46.022Z,11.10
2019-02-24T13:39:16.407Z,11.20
2019-02-24T13:41:47.784Z,11.50
2019-02-24T13:44:18.363Z,11.50
2019-02-24T13:46:48.933Z,11.30
2019-02-24T13:49:19.386Z,11.20
2019-02-24T13:51:49.965Z,11.30
2019-02-24T13:54:20.416Z,11.20
2019-02-24T13:56:50.806Z,11.20
2019-02-24T13:59:21.125Z,11.50
2019-02-24T14:01:51.628Z,11.30
2019-02-24T14:04:22.026Z,11.30
2019-02-24T14:06:52.409Z,11.20
2019-02-24T14:09:22.908Z,11.40
2019-02-24T14:11:55.276Z,11.30
2019-02-24T14:14:25.907Z,11.40
2019-02-24T14:16:56.312Z,11.30
2019-02-24T14:19:26.706Z,11.30
2019-02-24T14:21:57.350Z,11.20
2019-02-24T14:24:27.731Z,11.30
2019-02-24T14:27:17.475Z,11.40
2019-02-24T14:29:48.093Z,11.30
2019-02-24T14:32:19.457Z,11.40
2019-02-24T14:34:50.659Z,11.60
2019-02-24T14:37:21.094Z,11.60
2019-02-24T14:39:51.537Z,11.50
2019-02-24T14:42:21.868Z,11.50
2019-02-24T14:44:53.018Z,11.40
2019-02-24T14:47:24.234Z,11.40
2019-02-24T14:49:54.808Z,11.40
2019-02-24T14:52:25.389Z,11.40
2019-02-24T14:54:55.848Z,11.40
2019-02-24T14:57:26.944Z,11.40
2019-02-24T15:03:04.648Z,11.50
2019-02-24T15:05:35.100Z,11.70
2019-02-24T15:08:07.718Z,11.90
2019-02-24T15:10:38.156Z,11.90
2019-02-24T15:13:09.498Z,11.80
2019-02-24T15:15:40.635Z,12.10
2019-02-24T15:18:11.069Z,12.00
2019-02-24T15:20:42.232Z,12.00
2019-02-24T15:23:31.886Z,11.80
2019-02-24T15:26:02.216Z,11.80
2019-02-24T15:28:33.544Z,11.80
2019-02-24T15:31:04.022Z,11.80
2019-02-24T15:33:34.631Z,12.00
2019-02-24T15:36:06.016Z,11.70
2019-02-24T15:38:36.399Z,11.70
2019-02-24T15:41:08.817Z,11.80
2019-02-24T15:43:41.299Z,11.70
2019-02-24T15:46:13.740Z,11.70
2019-02-24T15:48:44.883Z,11.80
2019-02-24T15:51:16.018Z,11.90
2019-02-24T15:53:47.267Z,12.00
2019-02-24T15:56:18.471Z,11.80
2019-02-24T15:58:53.155Z,11.80
2019-02-24T16:01:25.380Z,11.60
2019-02-24T16:03:55.769Z,11.50
2019-02-24T16:06:26.241Z,11.60
2019-02-24T16:09:03.858Z,11.50
2019-02-24T16:11:34.313Z,11.40
2019-02-24T16:14:06.682Z,11.40
2019-02-24T16:16:37.054Z,11.40
2019-02-24T16:19:07.435Z,11.40
2019-02-24T16:21:37.881Z,11.30
2019-02-24T16:24:08.450Z,11.30
2019-02-24T16:26:38.895Z,11.30
2019-02-24T16:29:10.304Z,11.20
2019-02-24T16:32:00.131Z,11.30
2019-02-24T16:34:31.282Z,11.30
2019-02-24T16:37:02.882Z,11.30
2019-02-24T16:39:40.577Z,11.30
2019-02-24T16:42:11.211Z,11.30
2019-02-24T16:44:41.593Z,11.30
2019-02-24T16:47:12.805Z,11.30
2019-02-24T16:49:43.380Z,11.30
2019-02-24T16:52:13.765Z,11.20
2019-02-24T16:54:52.509Z,11.20
2019-02-24T16:57:14.703Z,11.20
2019-02-24T17:00:04.448Z,11.10
2019-02-24T17:02:36.037Z,11.00
2019-02-24T17:05:13.720Z,11.00
2019-02-24T17:07:44.105Z,10.90
2019-02-24T17:10:17.746Z,11.00
2019-02-24T17:12:48.127Z,11.00
2019-02-24T17:15:18.521Z,10.90
2019-02-24T17:17:48.953Z,10.90
2019-02-24T17:20:38.992Z,10.80
2019-02-24T17:23:10.445Z,10.70
2019-02-24T17:25:41.891Z,10.70
2019-02-24T17:28:13.091Z,10.70
2019-02-24T17:30:43.770Z,10.70
2019-02-24T17:33:14.976Z,10.80
2019-02-24T17:35:45.650Z,10.80
2019-02-24T17:38:17.082Z,10.70
2019-02-24T17:40:47.478Z,10.70
2019-02-24T17:43:37.517Z,10.60
2019-02-24T17:46:08.145Z,10.50
2019-02-24T17:48:38.784Z,10.60
2019-02-24T17:51:10.117Z,10.50
2019-02-24T17:53:42.723Z,10.50
2019-02-24T17:56:12.159Z,10.40
2019-02-24T17:58:51.655Z,10.40
2019-02-24T18:01:21.976Z,10.30
2019-02-24T18:03:54.521Z,10.30
2019-02-24T18:06:27.335Z,10.30
2019-02-24T18:08:58.690Z,10.40
2019-02-24T18:11:29.851Z,10.40
2019-02-24T18:14:00.666Z,10.40
2019-02-24T18:16:31.059Z,10.40
2019-02-24T18:19:01.451Z,10.40
2019-02-24T18:21:33.886Z,10.30
2019-02-24T18:26:35.068Z,10.20
2019-02-24T18:29:06.495Z,10.20
2019-02-24T18:31:37.141Z,10.10
2019-02-24T18:34:07.774Z,10.10
2019-02-24T18:36:39.110Z,10.10
2019-02-24T18:39:10.467Z,10.10
2019-02-24T18:41:41.690Z,10.00
2019-02-24T18:44:12.392Z,10.00
2019-02-24T18:46:42.780Z,10.00
2019-02-24T18:49:13.923Z,9.90
2019-02-24T18:51:45.116Z,9.90
2019-02-24T18:54:35.174Z,9.90
2019-02-24T18:57:05.569Z,9.90
2019-02-24T18:59:35.996Z,9.90
2019-02-24T19:02:07.340Z,9.70
2019-02-24T19:04:37.915Z,9.70
2019-02-24T19:07:08.245Z,9.60
2019-02-24T19:09:38.901Z,9.60
2019-02-24T19:14:54.401Z,9.60
2019-02-24T19:17:43.826Z,9.60
2019-02-24T19:20:15.222Z,9.70
2019-02-24T19:23:07.011Z,9.70
2019-02-24T19:25:38.220Z,9.70
2019-02-24T19:28:08.778Z,9.70
2019-02-24T19:30:39.163Z,9.70
2019-02-24T19:33:09.781Z,9.60
2019-02-24T19:35:47.482Z,9.50
2019-02-24T19:38:37.289Z,9.40
2019-02-24T19:41:07.665Z,9.40
2019-02-24T19:43:39.013Z,9.40
2019-02-24T19:46:09.461Z,9.40
2019-02-24T19:48:58.943Z,9.30
2019-02-24T19:51:29.392Z,9.20
2019-02-24T19:53:59.772Z,9.20
2019-02-24T19:56:30.382Z,9.10
2019-02-24T19:59:01.766Z,9.30
2019-02-24T20:01:36.417Z,9.20
2019-02-24T20:04:15.583Z,9.30
2019-02-24T20:06:37.251Z,9.20
2019-02-24T20:09:28.961Z,9.20
2019-02-24T20:11:59.405Z,9.10
2019-02-24T20:14:33.065Z,9.20
2019-02-24T20:17:04.786Z,9.20
2019-02-24T20:19:36.070Z,9.20
2019-02-24T20:22:07.522Z,9.20
2019-02-24T20:24:38.653Z,9.20
2019-02-24T20:27:08.987Z,9.20
2019-02-24T20:29:39.552Z,9.10
2019-02-24T20:32:11.253Z,9.10
2019-02-24T20:34:41.823Z,9.10
2019-02-24T20:37:13.154Z,8.90
2019-02-24T20:39:44.538Z,8.90
2019-02-24T20:42:15.101Z,8.90
2019-02-24T20:44:45.680Z,8.90
2019-02-24T20:47:16.309Z,8.90
2019-02-24T20:49:47.661Z,8.80
2019-02-24T20:52:18.258Z,8.80
2019-02-24T20:54:48.582Z,8.80
2019-02-24T20:57:19.152Z,8.80
2019-02-24T20:59:50.712Z,8.80
2019-02-24T21:02:21.284Z,8.80
2019-02-24T21:04:51.871Z,8.80
2019-02-24T21:07:22.430Z,8.70
2019-02-24T21:09:52.992Z,8.70
2019-02-24T21:12:24.407Z,8.70
2019-02-24T21:14:56.831Z,8.70
2019-02-24T21:17:29.317Z,8.70
2019-02-24T21:20:00.646Z,8.60
2019-02-24T21:22:33.105Z,8.60
2019-02-24T21:25:03.785Z,8.60
2019-02-24T21:27:35.225Z,8.70
2019-02-24T21:30:11.591Z,8.70
2019-02-24T21:32:42.786Z,8.70
2019-02-24T21:35:14.135Z,8.70
2019-02-24T21:38:07.165Z,8.70
2019-02-24T21:40:37.539Z,8.70
2019-02-24T21:43:08.995Z,8.70
2019-02-24T21:45:41.483Z,8.80
2019-02-24T21:48:10.022Z,8.70
2019-02-24T21:50:59.492Z,8.50
2019-02-24T21:53:34.938Z,8.50
2019-02-24T21:56:10.758Z,8.60
2019-02-24T21:58:41.144Z,8.60
2019-02-24T22:01:11.542Z,8.70
2019-02-24T22:03:41.996Z,8.60
2019-02-24T22:06:12.319Z,8.40
2019-02-24T22:08:42.923Z,8.40
2019-02-24T22:11:15.542Z,8.40
2019-02-24T22:13:46.109Z,8.50
2019-02-24T22:16:16.743Z,8.40
2019-02-24T22:18:47.159Z,8.40
2019-02-24T22:21:19.332Z,8.50
2019-02-24T22:23:50.491Z,8.50
2019-02-24T22:26:20.926Z,8.40
2019-02-24T22:28:51.321Z,8.10
2019-02-24T22:31:22.512Z,8.40
2019-02-24T22:33:52.937Z,8.40
2019-02-24T22:36:29.475Z,8.40
2019-02-24T22:39:00.842Z,8.20
2019-02-24T22:41:31.167Z,8.20
2019-02-24T22:44:01.480Z,8.30
2019-02-24T22:46:31.995Z,8.20
2019-02-24T22:49:02.254Z,8.30
2019-02-24T22:51:32.636Z,8.10
2019-02-24T22:54:03.076Z,8.10
2019-02-24T22:56:34.410Z,8.30
2019-02-24T22:59:04.988Z,8.30
2019-02-24T23:01:35.428Z,8.30
2019-02-24T23:04:13.259Z,8.20
2019-02-24T23:06:43.646Z,8.00
2019-02-24T23:09:17.106Z,8.00
2019-02-24T23:11:48.609Z,7.90
2019-02-24T23:14:18.937Z,7.90
2019-02-24T23:17:11.034Z,7.90
2019-02-24T23:22:48.666Z,8.10
2019-02-24T23:25:19.156Z,8.10
2019-02-24T23:27:49.725Z,8.10
2019-02-24T23:30:20.101Z,8.10
2019-02-24T23:32:50.956Z,8.10
2019-02-24T23:35:21.331Z,8.00
2019-02-24T23:37:57.073Z,8.00
2019-02-24T23:40:27.458Z,8.00
2019-02-24T23:42:57.795Z,8.00
2019-02-24T23:45:28.990Z,8.00
2019-02-24T23:48:21.544Z,8.00
2019-02-24T23:50:51.997Z,8.00
2019-02-24T23:53:22.387Z,8.10
2019-02-24T23:55:53.078Z,8.10
2019-02-24T23:58:24.413Z,7.90
